Latest Weather Observations for St Lawrence

IDQ60801

Issued at 8:32 pm EST Monday 30 March 2015 (issued every 30 minutes, with the page automatically refreshed every 10 minutes)

About weather observations | Map of weather stations | Latest weather observations for QLD | Other Formats
Station Details ID: 033210 Name: ST LAWRENCE Lat: -22.35 Lon: 149.52 Height: 9.19 m
Data from the previous 72 hours. | See also: Recent months at St Lawrence
Date/Time
EST
Temp
°C
App
Temp
°C
Dew
Point
Rel
Hum
%
Delta-T
°C
Wind Press
QNH
hPa
Press
MSL
hPa
Rain
since 9 am
mm
Dir
 
Spd
km/h
Gust
km/h
Spd
kts
Gust
kts
30/08:30pm 25.9 28.9 20.9 74 3.3 ESE 6 9 3 5 1019.4 1019.3 0.0
30/08:00pm 25.9 28.6 20.7 73 3.4 ESE 7 11 4 6 1019.2 1019.1 0.0
30/07:30pm 26.2 28.7 21.0 73 3.4 ESE 9 13 5 7 1018.7 1018.6 0.0
30/07:00pm 26.3 28.6 21.3 74 3.3 E 11 19 6 10 1018.2 1018.1 0.0
30/06:30pm 26.5 28.0 21.3 73 3.4 ENE 15 26 8 14 1017.9 1017.8 0.0
30/06:00pm 27.7 28.5 21.3 68 4.3 ENE 19 28 10 15 1017.4 1017.3 0.0
30/05:30pm 28.9 29.5 21.4 64 5.0 ENE 20 30 11 16 1017.0 1016.9 0.0
30/05:00pm 29.5 30.4 20.9 60 5.7 ENE 17 26 9 14 1016.8 1016.7 0.0
30/04:30pm 29.9 30.3 20.7 57 6.1 NE 19 26 10 14 1016.5 1016.4 0.0
30/04:00pm 31.0 31.9 21.5 57 6.4 NE 19 26 10 14 1016.1 1016.0 0.0
30/03:30pm 31.1 31.3 20.1 52 7.3 NE 19 30 10 16 1016.0 1015.9 0.0
30/03:00pm 30.4 30.2 20.6 55 6.5 NE 22 33 12 18 1015.9 1015.8 0.0
30/02:30pm 30.7 30.7 19.7 52 7.2 ENE 19 28 10 15 1016.1 1016.0 0.0
30/02:00pm 31.4 32.2 20.7 53 7.1 ENE 17 28 9 15 1016.3 1016.2 0.0
30/01:30pm 31.1 31.6 20.1 52 7.3 ENE 17 26 9 14 1016.7 1016.6 0.0
30/01:00pm 30.7 32.0 20.9 56 6.5 ENE 15 28 8 15 1017.2 1017.1 0.0
30/12:30pm 30.1 32.3 21.2 59 6.0 E 11 20 6 11 1017.7 1017.6 0.0
30/12:00pm 29.7 31.2 20.5 57 6.1 E 13 22 7 12 1018.3 1018.2 0.0
30/11:30am 30.0 31.3 20.8 57 6.1 E 15 26 8 14 1018.9 1018.8 0.0
30/11:00am 30.4 32.6 21.8 60 5.8 E 13 19 7 10 1019.3 1019.2 0.0
30/10:30am 29.7 30.9 21.4 61 5.6 E 17 28 9 15 1019.6 1019.5 0.0
30/10:00am 28.9 31.0 21.7 65 4.8 ESE 13 19 7 10 1019.8 1019.7 0.0
30/09:30am 27.8 30.2 21.6 69 4.1 SE 11 15 6 8 1020.1 1020.0 0.0
30/09:00am 26.9 29.2 21.4 72 3.6 SE 11 15 6 8 1020.1 1020.0 10.0
30/08:30am 25.7 28.0 20.7 74 3.3 SSE 9 15 5 8 1020.0 1019.9 10.0
30/08:00am 24.1 26.6 21.0 83 2.0 S 9 13 5 7 1019.8 1019.7 10.0
30/07:30am 24.1 26.3 21.2 84 1.9 S 11 17 6 9 1019.4 1019.3 10.0
30/07:00am 23.0 25.4 20.9 88 1.4 S 9 15 5 8 1019.1 1019.0 10.0
30/06:30am 22.6 25.0 20.9 90 1.1 S 9 13 5 7 1018.8 1018.7 10.0
30/06:00am 22.7 25.3 21.2 91 1.0 SSE 9 13 5 7 1018.5 1018.4 10.0
30/05:30am 22.8 25.7 21.1 90 1.1 S 7 9 4 5 1018.2 1018.1 10.0
30/05:00am 22.9 26.0 21.0 89 1.2 S 6 9 3 5 1018.0 1017.9 10.0
30/04:30am 23.1 26.3 21.2 89 1.2 S 6 9 3 5 1017.9 1017.8 10.0
30/04:00am 23.2 26.3 21.5 90 1.1 S 7 11 4 6 1017.9 1017.8 10.0
30/03:30am 23.1 26.4 21.5 91 1.1 S 6 7 3 4 1017.8 1017.7 10.0
30/03:00am 23.2 26.6 21.6 91 1.1 S 6 7 3 4 1017.9 1017.8 10.0
30/02:30am 23.2 26.4 21.6 91 1.1 S 7 11 4 6 1018.0 1017.9 10.0
30/02:00am 23.2 26.4 21.6 91 1.1 S 7 9 4 5 1018.0 1017.9 10.0
30/01:30am 23.5 28.0 21.6 89 1.3 CALM 0 0 0 0 1018.5 1018.4 10.0
30/01:00am 23.7 26.9 21.6 88 1.4 N 7 13 4 7 1018.6 1018.5 10.0
30/12:30am 23.9 27.2 21.4 86 1.6 ENE 6 9 3 5 1019.4 1019.3 10.0
30/12:00am 23.7 26.9 21.6 88 1.4 E 7 11 4 6 1019.8 1019.7 10.0
 
Date/Time
EST
Temp
°C
App
Temp
°C
Dew
Point
Rel
Hum
%
Delta-T
°C
Wind Press
QNH
hPa
Press
MSL
hPa
Rain
since 9 am
mm
Dir
 
Spd
km/h
Gust
km/h
Spd
kts
Gust
kts
29/11:30pm 23.2 26.6 21.6 91 1.1 S 6 9 3 5 1020.1 1020.0 10.0
29/11:00pm 23.2 27.1 21.8 92 0.9 SSW 4 7 2 4 1020.4 1020.3 10.0
29/10:30pm 23.3 27.8 21.6 90 1.1 CALM 0 0 0 0 1020.6 1020.5 10.0
29/10:00pm 23.1 26.2 21.4 90 1.1 E 7 13 4 7 1020.8 1020.7 10.0
29/09:30pm 23.7 26.0 21.4 87 1.5 E 11 17 6 9 1021.0 1020.9 9.8
29/09:00pm 23.9 26.5 22.0 89 1.3 ESE 11 20 6 11 1020.7 1020.6 9.8
29/08:30pm 23.7 27.6 22.5 93 0.8 SSE 6 9 3 5 1020.2 1020.1 9.8
29/08:00pm 23.5 27.6 22.3 93 0.8 SW 4 6 2 3 1019.8 1019.7 9.8
29/07:30pm 23.5 27.2 22.3 93 0.8 WSW 6 7 3 4 1019.7 1019.6 9.8
29/07:00pm 23.3 26.9 22.1 93 0.8 E 6 9 3 5 1019.4 1019.3 9.8
29/06:30pm 23.4 26.8 22.0 92 0.9 E 7 11 4 6 1018.9 1018.8 8.2
29/06:00pm 25.0 28.6 22.3 85 1.8 SW 7 9 4 5 1018.2 1018.1 1.8
29/05:30pm 25.8 29.1 21.9 79 2.6 SW 7 9 4 5 1017.9 1017.8 1.8
29/05:00pm 26.6 30.5 21.1 72 3.6 SW 2 6 1 3 1017.8 1017.7 1.8
29/04:30pm 26.8 30.4 21.3 72 3.7 ENE 4 7 2 4 1017.7 1017.6 1.8
29/04:00pm 26.3 29.2 20.6 71 3.7 NE 6 11 3 6 1017.6 1017.5 1.8
29/03:30pm 25.9 27.1 20.7 73 3.4 ENE 15 24 8 13 1017.5 1017.4 1.8
29/03:00pm 25.8 27.7 22.7 83 2.1 NE 17 26 9 14 1017.4 1017.3 1.8
29/02:30pm 25.7 26.2 21.1 76 3.0 NE 20 30 11 16 1017.4 1017.3 1.2
29/02:00pm 30.2 31.1 21.6 60 5.8 NNE 19 28 10 15 1017.3 1017.2 0.0
29/01:30pm 30.4 30.2 19.4 51 7.2 NE 19 28 10 15 1017.6 1017.5 0.0
29/01:00pm 31.0 31.2 20.6 54 6.9 ENE 20 30 11 16 1017.7 1017.6 0.0
29/12:30pm 30.6 30.6 20.2 53 6.9 ENE 20 28 11 15 1018.1 1018.0 0.0
29/12:00pm 30.2 30.5 20.7 56 6.3 ENE 20 35 11 19 1018.5 1018.4 0.0
29/11:30am 31.7 33.5 20.3 50 7.6 ENE 11 19 6 10 1018.6 1018.5 0.0
29/11:00am 31.9 33.4 20.5 51 7.6 ENE 13 24 7 13 1019.1 1019.0 0.0
29/10:30am 30.5 32.2 20.1 53 6.9 E 11 17 6 9 1019.4 1019.3 0.0
29/10:00am 29.4 30.9 20.5 58 5.9 E 13 19 7 10 1019.5 1019.4 0.0
29/09:30am 29.6 32.1 21.0 60 5.7 ESE 9 24 5 13 1019.7 1019.6 0.0
29/09:00am 28.5 31.2 21.3 65 4.8 ESE 9 15 5 8 1019.6 1019.5 0.0
29/08:30am 27.0 28.8 21.1 70 3.9 SSE 13 17 7 9 1019.5 1019.4 0.0
29/08:00am 26.2 28.8 21.2 74 3.3 S 9 13 5 7 1019.2 1019.1 0.0
29/07:30am 24.7 26.9 21.2 81 2.3 S 11 17 6 9 1018.7 1018.6 0.0
29/07:00am 23.6 25.8 21.1 86 1.6 S 11 17 6 9 1018.4 1018.3 0.0
29/06:30am 23.3 25.8 21.0 87 1.5 S 9 13 5 7 1018.1 1018.0 0.0
29/06:00am 23.2 25.7 21.1 88 1.4 SSE 9 15 5 8 1017.7 1017.6 0.0
29/05:30am 22.9 25.3 20.8 88 1.4 S 9 13 5 7 1017.4 1017.3 0.0
29/05:00am 22.8 25.1 20.7 88 1.4 SSE 9 13 5 7 1016.8 1016.7 0.0
29/04:30am 23.0 25.2 20.5 86 1.6 SSE 9 11 5 6 1016.6 1016.5 0.0
29/04:00am 23.0 25.2 20.5 86 1.6 SSE 9 11 5 6 1016.5 1016.4 0.0
29/03:30am 23.0 25.2 20.5 86 1.6 S 9 11 5 6 1016.4 1016.3 0.0
29/03:00am 23.4 25.7 20.7 85 1.8 S 9 11 5 6 1016.5 1016.4 0.0
29/02:30am 23.4 26.1 20.7 85 1.8 SSE 7 9 4 5 1016.6 1016.5 0.0
29/02:00am 23.8 26.6 20.9 84 1.9 SSE 7 11 4 6 1016.9 1016.8 0.0
29/01:30am 24.2 27.1 21.1 83 2.0 SSE 7 9 4 5 1017.1 1017.0 0.0
29/01:00am 24.2 27.0 20.9 82 2.2 SSE 7 9 4 5 1017.3 1017.2 0.0
29/12:30am 24.9 27.8 21.0 79 2.6 SSE 7 9 4 5 1017.3 1017.2 0.0
29/12:00am 25.3 28.5 21.2 78 2.7 SSE 6 7 3 4 1017.6 1017.5 0.0
 
Date/Time
EST
Temp
°C
App
Temp
°C
Dew
Point
Rel
Hum
%
Delta-T
°C
Wind Press
QNH
hPa
Press
MSL
hPa
Rain
since 9 am
mm
Dir
 
Spd
km/h
Gust
km/h
Spd
kts
Gust
kts
28/11:30pm 25.8 29.1 21.5 77 2.9 ESE 6 9 3 5 1017.7 1017.6 0.0
28/11:00pm 26.0 29.1 21.4 76 3.0 ESE 7 11 4 6 1018.0 1017.9 0.0
28/10:30pm 26.2 29.2 21.2 74 3.3 E 7 13 4 7 1018.1 1018.0 0.0
28/10:00pm 26.5 29.2 21.3 73 3.4 E 9 15 5 8 1018.0 1017.9 0.0
28/09:30pm 26.7 29.1 21.5 73 3.5 E 11 17 6 9 1018.0 1017.9 0.0
28/09:00pm 26.9 29.5 21.2 71 3.8 E 9 11 5 6 1017.8 1017.7 0.0
28/08:30pm 27.2 29.7 21.0 69 4.1 ENE 9 13 5 7 1017.6 1017.5 0.0
28/08:00pm 27.4 30.1 20.7 67 4.4 E 7 13 4 7 1017.4 1017.3 0.0
28/07:30pm 27.7 30.2 21.7 70 4.0 NE 11 17 6 9 1017.0 1016.9 0.0
28/07:00pm 27.8 29.7 21.3 67 4.3 NE 13 19 7 10 1016.5 1016.4 0.0
28/06:30pm 28.0 29.6 21.5 67 4.3 NNE 15 20 8 11 1016.1 1016.0 0.0
28/06:00pm 28.4 29.9 21.2 65 4.8 NNE 15 20 8 11 1015.7 1015.6 0.0
28/05:30pm 28.8 29.4 21.0 62 5.2 NNE 19 24 10 13 1015.3 1015.2 0.0
28/05:00pm 29.3 30.0 21.5 63 5.2 NNE 20 28 11 15 1015.1 1015.0 0.0
28/04:30pm 29.6 29.9 20.7 58 5.9 NNE 20 28 11 15 1014.9 1014.8 0.0
28/04:00pm 30.2 30.6 21.0 58 6.1 NNE 20 30 11 16 1014.9 1014.8 0.0
28/03:30pm 30.7 30.8 20.3 53 6.9 NNE 20 30 11 16 1014.8 1014.7 0.0
28/03:00pm 32.0 31.9 19.9 48 8.0 NE 20 28 11 15 1014.7 1014.6 0.0
28/02:30pm 32.4 32.9 20.0 48 8.2 ENE 17 24 9 13 1014.9 1014.8 0.0
28/02:00pm 31.6 32.9 19.2 47 8.1 NE 11 22 6 12 1015.2 1015.1 0.0
28/01:30pm 31.6 32.3 18.9 47 8.3 ENE 13 20 7 11 1015.6 1015.5 0.0
28/01:00pm 31.5 32.2 18.8 46 8.2 E 13 30 7 16 1016.0 1015.9 0.0
28/12:30pm 31.7 33.6 19.7 49 7.9 SE 9 20 5 11 1016.6 1016.5 0.0
28/12:00pm 31.1 32.2 18.8 48 8.0 E 11 19 6 10 1017.2 1017.1 0.0
28/11:30am 29.9 30.4 18.3 49 7.4 SE 13 20 7 11 1017.7 1017.6 0.0
28/11:00am 31.0 32.3 19.4 50 7.6 E 11 19 6 10 1018.2 1018.1 0.0
28/10:30am 30.3 31.8 19.0 50 7.3 E 9 17 5 9 1018.5 1018.4 0.0
28/10:00am 29.3 30.2 19.3 55 6.5 SE 13 24 7 13 1018.6 1018.5 0.0
28/09:30am 29.9 33.2 20.7 57 6.1 SE 4 13 2 7 1018.5 1018.4 0.0
28/09:00am 28.2 30.5 20.7 63 4.9 S 9 17 5 9 1018.5 1018.4 0.0
28/08:30am 27.4 29.7 21.4 70 4.0 S 11 17 6 9 1018.3 1018.2 0.0
28/08:00am 26.5 28.9 21.5 74 3.3 SSE 11 13 6 7 1018.1 1018.0 0.0
28/07:30am 25.1 27.5 21.6 81 2.3 S 11 17 6 9 1017.9 1017.8 0.0
28/07:00am 24.1 26.9 21.6 86 1.7 SSE 9 13 5 7 1017.5 1017.4 0.0
28/06:30am 23.4 26.1 21.3 88 1.4 S 9 11 5 6 1017.3 1017.2 0.0
28/06:00am 23.5 26.2 21.4 88 1.4 S 9 13 5 7 1016.8 1016.7 0.0
28/05:30am 24.0 26.7 21.3 85 1.8 SSE 9 11 5 6 1016.5 1016.4 0.0
28/05:00am 24.1 27.0 21.8 87 1.5 SSE 9 11 5 6 1016.3 1016.2 0.0
28/04:30am 23.9 27.3 22.0 89 1.3 SSE 7 9 4 5 1015.9 1015.8 0.0
28/04:00am 23.6 26.7 21.5 88 1.4 SSE 7 9 4 5 1015.7 1015.6 0.0
28/03:30am 24.0 27.1 21.5 86 1.7 S 7 9 4 5 1015.8 1015.7 0.0
28/03:00am 24.3 27.5 21.6 85 1.8 S 7 9 4 5 1015.8 1015.7 0.0
28/02:30am 24.7 28.2 21.8 84 1.9 SSE 6 7 3 4 1015.9 1015.8 0.0
28/02:00am 24.7 28.5 21.6 83 2.1 SSE 4 6 2 3 1016.0 1015.9 0.0
28/01:30am 24.8 27.9 21.5 82 2.2 S 7 9 4 5 1016.2 1016.1 0.0
28/01:00am 25.3 28.8 21.8 81 2.3 ESE 6 7 3 4 1016.4 1016.3 0.0
28/12:30am 25.6 29.0 21.7 79 2.6 ENE 6 9 3 5 1016.5 1016.4 0.0
28/12:00am 25.9 29.3 22.0 79 2.6 ENE 7 11 4 6 1016.7 1016.6 0.0
 
Date/Time
EST
Temp
°C
App
Temp
°C
Dew
Point
Rel
Hum
%
Delta-T
°C
Wind Press
QNH
hPa
Press
MSL
hPa
Rain
since 9 am
mm
Dir
 
Spd
km/h
Gust
km/h
Spd
kts
Gust
kts
27/11:30pm 25.9 29.5 22.0 79 2.6 E 6 9 3 5 1017.0 1016.9 0.0
27/11:00pm 26.0 29.6 22.1 79 2.6 ENE 6 9 3 5 1017.0 1016.9 0.0
27/10:30pm 26.0 29.5 22.1 79 2.6 E 7 11 4 6 1017.2 1017.1 0.0
27/10:00pm 25.6 28.9 21.5 78 2.7 E 6 9 3 5 1017.1 1017.0 0.0
27/09:30pm 25.7 29.9 20.9 75 3.2 CALM 0 0 0 0 1017.0 1016.9 0.0
27/09:00pm 26.6 29.6 20.9 71 3.8 NE 6 11 3 6 1016.8 1016.7 0.0

Other Formats:

Comma delimited format used in spreadsheet applications
http://www.bom.gov.au/fwo/IDQ60801/IDQ60801.95369.axf

JavaScript Object Notation format (JSON) in row-major order
http://www.bom.gov.au/fwo/IDQ60801/IDQ60801.95369.json